sensor_id;sensor_type;location;lat;lon;timestamp;pressure;altitude;pressure_sealevel;temperature;humidity
5755;BME280;2902;42.130;24.732;2024-03-07T00:00:01;99487.19;;;8.80;96.89
5755;BME280;2902;42.130;24.732;2024-03-07T00:02:29;99489.16;;;8.93;97.03
5755;BME280;2902;42.130;24.732;2024-03-07T00:04:56;99484.56;;;9.01;96.70
5755;BME280;2902;42.130;24.732;2024-03-07T00:07:22;99487.34;;;8.79;98.53
5755;BME280;2902;42.130;24.732;2024-03-07T00:09:49;99478.28;;;8.88;99.02
5755;BME280;2902;42.130;24.732;2024-03-07T00:12:19;99472.63;;;8.91;98.15
5755;BME280;2902;42.130;24.732;2024-03-07T00:14:47;99480.91;;;9.02;98.13
5755;BME280;2902;42.130;24.732;2024-03-07T00:17:14;99479.72;;;9.05;97.55
5755;BME280;2902;42.130;24.732;2024-03-07T00:19:40;99481.09;;;9.01;97.36
5755;BME280;2902;42.130;24.732;2024-03-07T00:22:07;99475.00;;;9.00;97.99
5755;BME280;2902;42.130;24.732;2024-03-07T00:24:34;99487.91;;;9.10;98.23
5755;BME280;2902;42.130;24.732;2024-03-07T00:27:01;99472.78;;;9.04;97.51
5755;BME280;2902;42.130;24.732;2024-03-07T00:29:27;99477.06;;;9.05;97.46
5755;BME280;2902;42.130;24.732;2024-03-07T00:31:55;99480.25;;;9.15;97.69
5755;BME280;2902;42.130;24.732;2024-03-07T00:34:24;99480.88;;;9.17;97.55
5755;BME280;2902;42.130;24.732;2024-03-07T00:36:50;99488.09;;;9.23;97.00
5755;BME280;2902;42.130;24.732;2024-03-07T00:39:18;99490.09;;;9.21;97.20
5755;BME280;2902;42.130;24.732;2024-03-07T00:41:45;99486.06;;;9.25;96.82
5755;BME280;2902;42.130;24.732;2024-03-07T00:44:11;99481.25;;;9.14;97.03
5755;BME280;2902;42.130;24.732;2024-03-07T00:46:38;99476.22;;;9.19;96.37
5755;BME280;2902;42.130;24.732;2024-03-07T00:49:06;99480.31;;;9.21;96.77
5755;BME280;2902;42.130;24.732;2024-03-07T00:51:33;99478.69;;;9.06;96.87
5755;BME280;2902;42.130;24.732;2024-03-07T00:54:00;99469.59;;;9.08;97.71
5755;BME280;2902;42.130;24.732;2024-03-07T00:56:26;99474.56;;;9.18;96.92
5755;BME280;2902;42.130;24.732;2024-03-07T00:58:54;99460.31;;;9.19;96.44
5755;BME280;2902;42.130;24.732;2024-03-07T01:01:22;99471.44;;;9.29;96.35
5755;BME280;2902;42.130;24.732;2024-03-07T01:03:49;99461.91;;;9.34;96.11
5755;BME280;2902;42.130;24.732;2024-03-07T01:06:17;99471.06;;;9.32;94.99
5755;BME280;2902;42.130;24.732;2024-03-07T01:08:45;99470.22;;;9.31;95.06
5755;BME280;2902;42.130;24.732;2024-03-07T01:11:12;99470.69;;;9.35;95.44
5755;BME280;2902;42.130;24.732;2024-03-07T01:13:39;99466.19;;;9.35;95.34
5755;BME280;2902;42.130;24.732;2024-03-07T01:16:06;99476.00;;;9.35;94.30
5755;BME280;2902;42.130;24.732;2024-03-07T01:18:33;99480.03;;;9.31;94.77
5755;BME280;2902;42.130;24.732;2024-03-07T01:21:00;99466.28;;;9.06;94.73
5755;BME280;2902;42.130;24.732;2024-03-07T01:23:28;99469.66;;;9.15;95.22
5755;BME280;2902;42.130;24.732;2024-03-07T01:25:55;99470.31;;;9.02;94.78
5755;BME280;2902;42.130;24.732;2024-03-07T01:28:23;99478.19;;;8.96;94.65
5755;BME280;2902;42.130;24.732;2024-03-07T01:30:49;99478.75;;;8.77;95.64
5755;BME280;2902;42.130;24.732;2024-03-07T01:33:16;99473.22;;;8.43;96.99
5755;BME280;2902;42.130;24.732;2024-03-07T01:35:43;99471.59;;;8.42;96.51
5755;BME280;2902;42.130;24.732;2024-03-07T01:38:09;99468.69;;;8.37;98.34
5755;BME280;2902;42.130;24.732;2024-03-07T01:40:38;99472.88;;;8.46;97.67
5755;BME280;2902;42.130;24.732;2024-03-07T01:43:06;99479.53;;;8.42;96.67
5755;BME280;2902;42.130;24.732;2024-03-07T01:45:33;99485.25;;;8.31;97.94
5755;BME280;2902;42.130;24.732;2024-03-07T01:48:03;99480.53;;;8.41;97.24
5755;BME280;2902;42.130;24.732;2024-03-07T01:50:30;99480.53;;;8.41;96.80
5755;BME280;2902;42.130;24.732;2024-03-07T01:52:58;99475.50;;;8.31;96.35
5755;BME280;2902;42.130;24.732;2024-03-07T01:55:26;99471.94;;;8.39;96.12
5755;BME280;2902;42.130;24.732;2024-03-07T01:57:55;99467.09;;;8.42;95.98
5755;BME280;2902;42.130;24.732;2024-03-07T02:00:23;99472.31;;;8.36;96.64
5755;BME280;2902;42.130;24.732;2024-03-07T02:02:49;99479.78;;;8.47;96.22
5755;BME280;2902;42.130;24.732;2024-03-07T02:05:16;99466.38;;;8.48;95.15
5755;BME280;2902;42.130;24.732;2024-03-07T02:07:43;99466.47;;;8.55;95.38
5755;BME280;2902;42.130;24.732;2024-03-07T02:10:10;99468.50;;;8.53;93.60
5755;BME280;2902;42.130;24.732;2024-03-07T02:12:36;99469.22;;;8.47;94.00
5755;BME280;2902;42.130;24.732;2024-03-07T02:15:05;99469.75;;;8.28;94.69
5755;BME280;2902;42.130;24.732;2024-03-07T02:17:32;99470.66;;;8.35;95.86
5755;BME280;2902;42.130;24.732;2024-03-07T02:19:59;99464.84;;;8.25;95.79
5755;BME280;2902;42.130;24.732;2024-03-07T02:22:27;99473.13;;;8.36;95.70
5755;BME280;2902;42.130;24.732;2024-03-07T02:24:53;99470.81;;;8.19;95.52
5755;BME280;2902;42.130;24.732;2024-03-07T02:27:20;99474.31;;;8.34;96.03
5755;BME280;2902;42.130;24.732;2024-03-07T02:29:47;99472.97;;;8.38;94.93
5755;BME280;2902;42.130;24.732;2024-03-07T02:32:14;99462.19;;;8.39;94.67
5755;BME280;2902;42.130;24.732;2024-03-07T02:34:41;99458.34;;;8.27;95.08
5755;BME280;2902;42.130;24.732;2024-03-07T02:37:08;99462.53;;;8.36;95.51
5755;BME280;2902;42.130;24.732;2024-03-07T02:39:37;99464.28;;;8.44;95.25
5755;BME280;2902;42.130;24.732;2024-03-07T02:42:04;99470.22;;;8.46;95.44
5755;BME280;2902;42.130;24.732;2024-03-07T02:44:30;99460.56;;;8.53;95.28
5755;BME280;2902;42.130;24.732;2024-03-07T02:46:58;99460.34;;;8.54;94.99
5755;BME280;2902;42.130;24.732;2024-03-07T02:49:28;99475.03;;;8.57;94.20
5755;BME280;2902;42.130;24.732;2024-03-07T02:51:55;99476.69;;;8.58;94.78
5755;BME280;2902;42.130;24.732;2024-03-07T02:54:21;99468.50;;;8.53;94.83
5755;BME280;2902;42.130;24.732;2024-03-07T02:56:49;99469.66;;;8.50;94.31
5755;BME280;2902;42.130;24.732;2024-03-07T02:59:16;99479.44;;;8.50;94.38
5755;BME280;2902;42.130;24.732;2024-03-07T03:01:43;99468.84;;;8.50;94.14
5755;BME280;2902;42.130;24.732;2024-03-07T03:04:10;99464.28;;;8.44;94.29
5755;BME280;2902;42.130;24.732;2024-03-07T03:06:37;99466.47;;;8.26;95.04
5755;BME280;2902;42.130;24.732;2024-03-07T03:09:03;99467.31;;;8.26;95.01
5755;BME280;2902;42.130;24.732;2024-03-07T03:11:30;99465.50;;;8.19;95.04
5755;BME280;2902;42.130;24.732;2024-03-07T03:13:58;99473.88;;;8.30;94.91
5755;BME280;2902;42.130;24.732;2024-03-07T03:16:25;99464.50;;;8.20;94.87
5755;BME280;2902;42.130;24.732;2024-03-07T03:18:52;99466.22;;;8.35;94.78
5755;BME280;2902;42.130;24.732;2024-03-07T03:21:19;99467.00;;;8.36;94.35
5755;BME280;2902;42.130;24.732;2024-03-07T03:23:46;99469.94;;;8.41;93.44
5755;BME280;2902;42.130;24.732;2024-03-07T03:26:14;99477.81;;;8.49;93.65
5755;BME280;2902;42.130;24.732;2024-03-07T03:28:40;99475.88;;;8.43;93.05
5755;BME280;2902;42.130;24.732;2024-03-07T03:31:09;99482.19;;;8.42;92.48
5755;BME280;2902;42.130;24.732;2024-03-07T03:33:35;99470.03;;;8.47;92.20
5755;BME280;2902;42.130;24.732;2024-03-07T03:36:02;99471.09;;;8.24;92.80
5755;BME280;2902;42.130;24.732;2024-03-07T03:38:29;99470.41;;;8.30;92.15
5755;BME280;2902;42.130;24.732;2024-03-07T03:40:56;99474.59;;;8.39;92.80
5755;BME280;2902;42.130;24.732;2024-03-07T03:43:23;99469.38;;;8.45;92.68
5755;BME280;2902;42.130;24.732;2024-03-07T03:45:50;99471.22;;;8.45;91.91
5755;BME280;2902;42.130;24.732;2024-03-07T03:48:18;99477.59;;;8.36;91.74
5755;BME280;2902;42.130;24.732;2024-03-07T03:50:45;99477.97;;;8.33;92.03
5755;BME280;2902;42.130;24.732;2024-03-07T03:53:12;99473.66;;;8.46;91.51
5755;BME280;2902;42.130;24.732;2024-03-07T03:55:39;99474.16;;;8.50;91.60
5755;BME280;2902;42.130;24.732;2024-03-07T03:58:05;99472.31;;;8.36;91.65
5755;BME280;2902;42.130;24.732;2024-03-07T04:00:32;99469.78;;;8.20;91.44
5755;BME280;2902;42.130;24.732;2024-03-07T04:02:59;99474.13;;;8.21;92.92
5755;BME280;2902;42.130;24.732;2024-03-07T04:05:27;99475.78;;;8.22;92.11
5755;BME280;2902;42.130;24.732;2024-03-07T04:07:54;99483.00;;;8.05;91.83
5755;BME280;2902;42.130;24.732;2024-03-07T04:10:22;99471.16;;;8.16;92.74
5755;BME280;2902;42.130;24.732;2024-03-07T04:12:48;99477.22;;;8.24;92.30
5755;BME280;2902;42.130;24.732;2024-03-07T04:15:15;99468.38;;;8.32;91.88
5755;BME280;2902;42.130;24.732;2024-03-07T04:17:42;99472.50;;;8.49;91.59
5755;BME280;2902;42.130;24.732;2024-03-07T04:20:10;99473.41;;;8.56;91.16
5755;BME280;2902;42.130;24.732;2024-03-07T04:22:39;99482.97;;;8.57;91.00
5755;BME280;2902;42.130;24.732;2024-03-07T04:25:07;99484.47;;;8.59;90.97
5755;BME280;2902;42.130;24.732;2024-03-07T04:27:35;99489.75;;;8.45;91.36
5755;BME280;2902;42.130;24.732;2024-03-07T04:30:06;99481.34;;;8.27;91.20
5755;BME280;2902;42.130;24.732;2024-03-07T04:32:35;99473.13;;;7.85;93.05
5755;BME280;2902;42.130;24.732;2024-03-07T04:35:02;99470.28;;;7.72;94.43
5755;BME280;2902;42.130;24.732;2024-03-07T04:37:33;99473.13;;;7.85;94.76
5755;BME280;2902;42.130;24.732;2024-03-07T04:40:04;99480.25;;;7.99;94.45
5755;BME280;2902;42.130;24.732;2024-03-07T04:42:36;99469.16;;;8.18;93.62
5755;BME280;2902;42.130;24.732;2024-03-07T04:45:04;99461.06;;;8.19;93.26
5755;BME280;2902;42.130;24.732;2024-03-07T04:47:31;99470.00;;;8.18;92.86
5755;BME280;2902;42.130;24.732;2024-03-07T04:49:57;99478.13;;;8.17;93.25
5755;BME280;2902;42.130;24.732;2024-03-07T04:52:24;99485.75;;;8.12;93.49
5755;BME280;2902;42.130;24.732;2024-03-07T04:54:51;99483.03;;;8.20;93.61
5755;BME280;2902;42.130;24.732;2024-03-07T04:57:20;99483.97;;;8.27;93.83
5755;BME280;2902;42.130;24.732;2024-03-07T04:59:46;99492.28;;;8.38;93.50
5755;BME280;2902;42.130;24.732;2024-03-07T05:02:13;99477.59;;;8.36;93.14
5755;BME280;2902;42.130;24.732;2024-03-07T05:04:40;99486.00;;;8.39;93.26
5755;BME280;2902;42.130;24.732;2024-03-07T05:07:06;99496.03;;;8.44;93.65
5755;BME280;2902;42.130;24.732;2024-03-07T05:09:33;99493.69;;;8.49;93.49
5755;BME280;2902;42.130;24.732;2024-03-07T05:12:00;99488.00;;;8.52;93.12
5755;BME280;2902;42.130;24.732;2024-03-07T05:14:28;99496.97;;;8.51;93.51
5755;BME280;2902;42.130;24.732;2024-03-07T05:16:55;99502.91;;;8.53;92.98
5755;BME280;2902;42.130;24.732;2024-03-07T05:19:36;99503.53;;;8.55;93.24
5755;BME280;2902;42.130;24.732;2024-03-07T05:22:02;99500.78;;;8.63;93.19
5755;BME280;2902;42.130;24.732;2024-03-07T05:24:30;99494.31;;;8.51;93.33
5755;BME280;2902;42.130;24.732;2024-03-07T05:26:58;99505.50;;;8.38;93.93
5755;BME280;2902;42.130;24.732;2024-03-07T05:29:24;99502.41;;;8.35;94.38
5755;BME280;2902;42.130;24.732;2024-03-07T05:31:53;99501.78;;;8.33;95.60
5755;BME280;2902;42.130;24.732;2024-03-07T05:34:20;99497.22;;;8.27;95.41
5755;BME280;2902;42.130;24.732;2024-03-07T05:36:48;99509.00;;;8.39;95.62
5755;BME280;2902;42.130;24.732;2024-03-07T05:39:16;99504.91;;;8.51;95.39
5755;BME280;2902;42.130;24.732;2024-03-07T05:41:44;99507.28;;;8.60;95.09
5755;BME280;2902;42.130;24.732;2024-03-07T05:44:11;99507.34;;;8.67;95.31
5755;BME280;2902;42.130;24.732;2024-03-07T05:46:38;99512.31;;;8.70;95.20
5755;BME280;2902;42.130;24.732;2024-03-07T05:49:13;99520.16;;;8.78;94.95
5755;BME280;2902;42.130;24.732;2024-03-07T05:51:40;99527.78;;;8.87;94.56
5755;BME280;2902;42.130;24.732;2024-03-07T05:54:10;99534.66;;;8.96;94.18
5755;BME280;2902;42.130;24.732;2024-03-07T05:56:39;99533.47;;;8.99;93.39
5755;BME280;2902;42.130;24.732;2024-03-07T05:59:06;99531.91;;;9.04;93.87
5755;BME280;2902;42.130;24.732;2024-03-07T06:01:34;99535.25;;;9.13;93.34
5755;BME280;2902;42.130;24.732;2024-03-07T06:04:02;99534.34;;;9.06;92.94
5755;BME280;2902;42.130;24.732;2024-03-07T06:06:33;99539.94;;;9.11;92.60
5755;BME280;2902;42.130;24.732;2024-03-07T06:09:01;99545.13;;;9.19;93.02
5755;BME280;2902;42.130;24.732;2024-03-07T06:11:32;99553.06;;;9.19;92.73
5755;BME280;2902;42.130;24.732;2024-03-07T06:14:00;99558.25;;;9.27;93.28
5755;BME280;2902;42.130;24.732;2024-03-07T06:16:28;99561.16;;;9.32;93.17
5755;BME280;2902;42.130;24.732;2024-03-07T06:18:58;99554.59;;;9.28;93.19
5755;BME280;2902;42.130;24.732;2024-03-07T06:21:25;99560.25;;;9.25;93.22
5755;BME280;2902;42.130;24.732;2024-03-07T06:23:53;99551.47;;;9.24;94.78
5755;BME280;2902;42.130;24.732;2024-03-07T06:26:25;99550.72;;;9.45;95.10
5755;BME280;2902;42.130;24.732;2024-03-07T06:29:02;99549.25;;;9.42;94.37
5755;BME280;2902;42.130;24.732;2024-03-07T06:31:30;99553.47;;;9.37;94.68
5755;BME280;2902;42.130;24.732;2024-03-07T06:33:57;99555.03;;;9.31;94.41
5755;BME280;2902;42.130;24.732;2024-03-07T06:36:24;99548.84;;;9.24;94.33
5755;BME280;2902;42.130;24.732;2024-03-07T06:38:52;99552.13;;;9.26;95.53
5755;BME280;2902;42.130;24.732;2024-03-07T06:41:19;99555.22;;;9.30;95.75
5755;BME280;2902;42.130;24.732;2024-03-07T06:43:46;99542.72;;;9.24;94.87
5755;BME280;2902;42.130;24.732;2024-03-07T06:46:12;99554.25;;;9.31;95.44
5755;BME280;2902;42.130;24.732;2024-03-07T06:48:41;99548.94;;;9.31;95.66
5755;BME280;2902;42.130;24.732;2024-03-07T06:51:09;99546.41;;;9.23;96.14
5755;BME280;2902;42.130;24.732;2024-03-07T06:53:36;99541.47;;;9.20;96.32
5755;BME280;2902;42.130;24.732;2024-03-07T06:56:05;99548.75;;;9.18;96.84
5755;BME280;2902;42.130;24.732;2024-03-07T06:58:32;99544.47;;;9.17;97.86
5755;BME280;2902;42.130;24.732;2024-03-07T07:00:59;99543.09;;;9.21;97.64
5755;BME280;2902;42.130;24.732;2024-03-07T07:03:27;99549.47;;;9.26;97.72
5755;BME280;2902;42.130;24.732;2024-03-07T07:05:54;99548.81;;;9.39;98.30
5755;BME280;2902;42.130;24.732;2024-03-07T07:08:21;99550.06;;;9.43;98.09
5755;BME280;2902;42.130;24.732;2024-03-07T07:10:49;99549.34;;;9.49;98.03
5755;BME280;2902;42.130;24.732;2024-03-07T07:13:17;99546.03;;;9.47;97.20
5755;BME280;2902;42.130;24.732;2024-03-07T07:15:43;99545.78;;;9.42;96.93
5755;BME280;2902;42.130;24.732;2024-03-07T07:18:10;99544.16;;;9.41;97.06
5755;BME280;2902;42.130;24.732;2024-03-07T07:20:39;99546.25;;;9.45;97.05
5755;BME280;2902;42.130;24.732;2024-03-07T07:23:05;99551.97;;;9.49;96.33
5755;BME280;2902;42.130;24.732;2024-03-07T07:25:32;99556.34;;;9.56;96.11
5755;BME280;2902;42.130;24.732;2024-03-07T07:27:59;99552.41;;;9.52;95.20
5755;BME280;2902;42.130;24.732;2024-03-07T07:30:27;99553.50;;;9.58;94.84
5755;BME280;2902;42.130;24.732;2024-03-07T07:32:54;99561.47;;;9.58;94.36
5755;BME280;2902;42.130;24.732;2024-03-07T07:35:21;99561.03;;;9.54;94.49
5755;BME280;2902;42.130;24.732;2024-03-07T07:37:49;99563.09;;;9.59;94.42
5755;BME280;2902;42.130;24.732;2024-03-07T07:40:18;99582.19;;;9.69;92.43
5755;BME280;2902;42.130;24.732;2024-03-07T07:42:45;99576.94;;;9.54;92.97
5755;BME280;2902;42.130;24.732;2024-03-07T07:45:13;99590.06;;;9.62;93.23
5755;BME280;2902;42.130;24.732;2024-03-07T07:47:42;99594.91;;;9.59;92.23
5755;BME280;2902;42.130;24.732;2024-03-07T07:50:11;99582.78;;;9.50;91.97
5755;BME280;2902;42.130;24.732;2024-03-07T07:52:43;99579.22;;;9.57;92.75
5755;BME280;2902;42.130;24.732;2024-03-07T07:55:10;99577.38;;;9.58;91.06
5755;BME280;2902;42.130;24.732;2024-03-07T07:57:41;99590.00;;;9.56;91.71
5755;BME280;2902;42.130;24.732;2024-03-07T08:00:11;99593.94;;;9.60;91.43
5755;BME280;2902;42.130;24.732;2024-03-07T08:02:38;99588.13;;;9.71;91.86
5755;BME280;2902;42.130;24.732;2024-03-07T08:05:06;99583.09;;;9.76;91.32
5755;BME280;2902;42.130;24.732;2024-03-07T08:07:35;99592.31;;;9.80;91.01
5755;BME280;2902;42.130;24.732;2024-03-07T08:10:03;99594.75;;;9.81;90.81
5755;BME280;2902;42.130;24.732;2024-03-07T08:12:29;99601.78;;;9.89;88.81
5755;BME280;2902;42.130;24.732;2024-03-07T08:14:56;99598.38;;;9.95;89.27
5755;BME280;2902;42.130;24.732;2024-03-07T08:17:23;99598.38;;;9.95;89.41
5755;BME280;2902;42.130;24.732;2024-03-07T08:19:50;99610.34;;;10.05;88.68
5755;BME280;2902;42.130;24.732;2024-03-07T08:22:19;99600.28;;;10.01;88.31
5755;BME280;2902;42.130;24.732;2024-03-07T08:24:45;99606.31;;;9.95;88.87
5755;BME280;2902;42.130;24.732;2024-03-07T08:27:12;99608.06;;;9.67;89.46
5755;BME280;2902;42.130;24.732;2024-03-07T08:29:39;99606.97;;;9.61;90.13
5755;BME280;2902;42.130;24.732;2024-03-07T08:32:06;99608.81;;;9.61;90.78
5755;BME280;2902;42.130;24.732;2024-03-07T08:34:33;99614.38;;;9.66;90.82
5755;BME280;2902;42.130;24.732;2024-03-07T08:37:00;99615.28;;;9.73;90.85
5755;BME280;2902;42.130;24.732;2024-03-07T08:39:30;99610.22;;;9.78;90.93
5755;BME280;2902;42.130;24.732;2024-03-07T08:41:57;99616.63;;;9.83;90.41
5755;BME280;2902;42.130;24.732;2024-03-07T08:44:24;99617.72;;;9.89;90.08
5755;BME280;2902;42.130;24.732;2024-03-07T08:46:51;99618.00;;;10.00;90.11
5755;BME280;2902;42.130;24.732;2024-03-07T08:49:18;99627.25;;;10.04;89.07
5755;BME280;2902;42.130;24.732;2024-03-07T08:51:45;99629.38;;;10.09;89.94
5755;BME280;2902;42.130;24.732;2024-03-07T08:54:12;99631.00;;;10.10;89.61
5755;BME280;2902;42.130;24.732;2024-03-07T08:56:40;99628.78;;;10.13;89.64
5755;BME280;2902;42.130;24.732;2024-03-07T08:59:07;99626.19;;;10.20;88.83
5755;BME280;2902;42.130;24.732;2024-03-07T09:01:40;99633.22;;;10.27;88.51
5755;BME280;2902;42.130;24.732;2024-03-07T09:04:08;99633.09;;;10.35;87.99
5755;BME280;2902;42.130;24.732;2024-03-07T09:06:35;99640.94;;;10.43;87.08
5755;BME280;2902;42.130;24.732;2024-03-07T09:09:02;99639.59;;;10.54;87.04
5755;BME280;2902;42.130;24.732;2024-03-07T09:11:29;99642.44;;;10.52;86.17
5755;BME280;2902;42.130;24.732;2024-03-07T09:13:57;99642.84;;;10.56;86.94
5755;BME280;2902;42.130;24.732;2024-03-07T09:16:23;99652.09;;;10.60;86.13
5755;BME280;2902;42.130;24.732;2024-03-07T09:18:50;99653.97;;;10.66;86.31
5755;BME280;2902;42.130;24.732;2024-03-07T09:21:17;99650.16;;;10.75;86.31
5755;BME280;2902;42.130;24.732;2024-03-07T09:23:44;99650.16;;;10.75;85.25
5755;BME280;2902;42.130;24.732;2024-03-07T09:26:10;99648.72;;;10.72;86.44
5755;BME280;2902;42.130;24.732;2024-03-07T09:28:37;99647.38;;;10.83;85.29
5755;BME280;2902;42.130;24.732;2024-03-07T09:31:05;99650.72;;;10.70;85.22
5755;BME280;2902;42.130;24.732;2024-03-07T09:33:33;99652.31;;;10.65;86.30
5755;BME280;2902;42.130;24.732;2024-03-07T09:36:00;99655.72;;;10.52;86.27
5755;BME280;2902;42.130;24.732;2024-03-07T09:38:27;99654.19;;;10.43;86.16
5755;BME280;2902;42.130;24.732;2024-03-07T09:40:54;99661.03;;;10.52;86.41
5755;BME280;2902;42.130;24.732;2024-03-07T09:43:21;99656.38;;;10.61;86.69
5755;BME280;2902;42.130;24.732;2024-03-07T09:45:49;99668.66;;;10.62;85.65
5755;BME280;2902;42.130;24.732;2024-03-07T09:48:17;99662.09;;;10.58;87.11
5755;BME280;2902;42.130;24.732;2024-03-07T09:50:46;99664.88;;;10.50;87.37
5755;BME280;2902;42.130;24.732;2024-03-07T09:53:17;99676.06;;;10.45;87.39
5755;BME280;2902;42.130;24.732;2024-03-07T09:55:45;99673.59;;;10.23;88.79
5755;BME280;2902;42.130;24.732;2024-03-07T09:58:12;99671.97;;;10.22;89.00
5755;BME280;2902;42.130;24.732;2024-03-07T10:00:45;99669.81;;;10.11;89.08
5755;BME280;2902;42.130;24.732;2024-03-07T10:03:20;99669.28;;;10.01;89.74
5755;BME280;2902;42.130;24.732;2024-03-07T10:05:49;99672.22;;;10.06;90.26
5755;BME280;2902;42.130;24.732;2024-03-07T10:08:16;99675.97;;;9.97;89.78
5755;BME280;2902;42.130;24.732;2024-03-07T10:10:44;99670.97;;;9.73;90.90
5755;BME280;2902;42.130;24.732;2024-03-07T10:13:12;99670.22;;;9.79;91.37
5755;BME280;2902;42.130;24.732;2024-03-07T10:15:39;99664.97;;;9.50;91.49
5755;BME280;2902;42.130;24.732;2024-03-07T10:18:08;99665.72;;;9.44;92.07
5755;BME280;2902;42.130;24.732;2024-03-07T10:20:37;99671.13;;;9.36;93.05
5755;BME280;2902;42.130;24.732;2024-03-07T10:23:07;99676.88;;;9.25;92.87
5755;BME280;2902;42.130;24.732;2024-03-07T10:25:34;99681.34;;;9.24;93.45
5755;BME280;2902;42.130;24.732;2024-03-07T10:28:03;99671.75;;;9.23;93.44
5755;BME280;2902;42.130;24.732;2024-03-07T10:30:39;99680.19;;;9.27;93.47
5755;BME280;2902;42.130;24.732;2024-03-07T10:33:06;99683.47;;;9.29;93.68
5755;BME280;2902;42.130;24.732;2024-03-07T10:35:33;99675.97;;;9.18;93.67
5755;BME280;2902;42.130;24.732;2024-03-07T10:38:01;99678.69;;;9.10;95.03
5755;BME280;2902;42.130;24.732;2024-03-07T10:40:32;99677.78;;;9.03;95.19
5755;BME280;2902;42.130;24.732;2024-03-07T10:43:01;99678.69;;;9.10;95.53
5755;BME280;2902;42.130;24.732;2024-03-07T10:45:38;99685.66;;;9.11;96.17
5755;BME280;2902;42.130;24.732;2024-03-07T10:48:11;99681.06;;;9.05;96.78
5755;BME280;2902;42.130;24.732;2024-03-07T10:50:52;99674.75;;;9.06;98.19
5755;BME280;2902;42.130;24.732;2024-03-07T10:53:31;99674.97;;;9.19;98.61
5755;BME280;2902;42.130;24.732;2024-03-07T10:56:16;99674.97;;;9.19;98.58
5755;BME280;2902;42.130;24.732;2024-03-07T10:58:57;99667.75;;;9.13;99.12
5755;BME280;2902;42.130;24.732;2024-03-07T11:01:26;99664.91;;;9.14;99.33
5755;BME280;2902;42.130;24.732;2024-03-07T11:03:57;99663.81;;;9.23;99.83
5755;BME280;2902;42.130;24.732;2024-03-07T11:06:25;99671.31;;;9.34;100.00
5755;BME280;2902;42.130;24.732;2024-03-07T11:08:53;99660.34;;;9.37;99.78
5755;BME280;2902;42.130;24.732;2024-03-07T11:11:21;99659.69;;;9.50;100.00
5755;BME280;2902;42.130;24.732;2024-03-07T11:13:50;99652.81;;;9.55;99.74
5755;BME280;2902;42.130;24.732;2024-03-07T11:16:19;99656.75;;;9.59;99.61
5755;BME280;2902;42.130;24.732;2024-03-07T11:22:02;99640.53;;;9.19;98.62
5755;BME280;2902;42.130;24.732;2024-03-07T11:24:41;99641.06;;;9.29;99.54
5755;BME280;2902;42.130;24.732;2024-03-07T11:27:10;99649.25;;;9.34;99.49
5755;BME280;2902;42.130;24.732;2024-03-07T11:29:40;99646.34;;;9.43;99.66
5755;BME280;2902;42.130;24.732;2024-03-07T11:32:09;99652.38;;;9.52;99.60
5755;BME280;2902;42.130;24.732;2024-03-07T11:34:38;99651.25;;;9.61;98.95
5755;BME280;2902;42.130;24.732;2024-03-07T11:37:06;99639.97;;;9.73;98.81
5755;BME280;2902;42.130;24.732;2024-03-07T11:39:44;99626.16;;;9.78;96.80
5755;BME280;2902;42.130;24.732;2024-03-07T11:42:24;99625.78;;;9.81;96.23
5755;BME280;2902;42.130;24.732;2024-03-07T11:44:57;99616.19;;;9.80;95.64
5755;BME280;2902;42.130;24.732;2024-03-07T11:47:24;99608.59;;;9.77;96.52
5755;BME280;2902;42.130;24.732;2024-03-07T11:49:54;99605.03;;;9.70;96.48
5755;BME280;2902;42.130;24.732;2024-03-07T11:52:23;99594.41;;;9.49;97.30
5755;BME280;2902;42.130;24.732;2024-03-07T11:54:54;99590.22;;;9.40;98.16
5755;BME280;2902;42.130;24.732;2024-03-07T11:57:28;99580.81;;;9.37;98.75
5755;BME280;2902;42.130;24.732;2024-03-07T11:59:59;99582.53;;;9.45;98.87
5755;BME280;2902;42.130;24.732;2024-03-07T12:02:33;99600.22;;;9.59;99.12
5755;BME280;2902;42.130;24.732;2024-03-07T12:05:02;99601.97;;;9.66;98.04
5755;BME280;2902;42.130;24.732;2024-03-07T12:07:30;99605.38;;;9.81;98.56
5755;BME280;2902;42.130;24.732;2024-03-07T12:09:58;99606.69;;;9.92;98.06
5755;BME280;2902;42.130;24.732;2024-03-07T12:12:29;99607.59;;;9.99;97.74
5755;BME280;2902;42.130;24.732;2024-03-07T12:14:56;99603.22;;;10.06;97.11
5755;BME280;2902;42.130;24.732;2024-03-07T12:17:23;99599.34;;;10.08;96.72
5755;BME280;2902;42.130;24.732;2024-03-07T12:19:50;99589.16;;;10.12;96.17
5755;BME280;2902;42.130;24.732;2024-03-07T12:22:19;99586.78;;;10.17;94.91
5755;BME280;2902;42.130;24.732;2024-03-07T12:24:52;99580.81;;;10.15;94.76
5755;BME280;2902;42.130;24.732;2024-03-07T12:27:29;99578.81;;;10.17;94.74
5755;BME280;2902;42.130;24.732;2024-03-07T12:29:57;99585.44;;;10.27;95.20
5755;BME280;2902;42.130;24.732;2024-03-07T12:32:27;99591.69;;;10.20;94.80
5755;BME280;2902;42.130;24.732;2024-03-07T12:34:54;99590.34;;;10.30;95.30
5755;BME280;2902;42.130;24.732;2024-03-07T12:37:21;99591.59;;;10.34;95.24
5755;BME280;2902;42.130;24.732;2024-03-07T12:39:52;99590.19;;;10.11;94.57
5755;BME280;2902;42.130;24.732;2024-03-07T12:42:28;99587.75;;;9.95;95.51
5755;BME280;2902;42.130;24.732;2024-03-07T12:44:57;99590.47;;;10.01;95.51
5755;BME280;2902;42.130;24.732;2024-03-07T12:47:25;99586.44;;;10.05;95.40
5755;BME280;2902;42.130;24.732;2024-03-07T12:49:52;99591.91;;;10.04;94.43
5755;BME280;2902;42.130;24.732;2024-03-07T12:52:18;99595.59;;;10.03;94.41
5755;BME280;2902;42.130;24.732;2024-03-07T12:54:45;99598.69;;;10.06;94.98
5755;BME280;2902;42.130;24.732;2024-03-07T12:57:13;99592.00;;;10.10;95.34
5755;BME280;2902;42.130;24.732;2024-03-07T12:59:41;99577.94;;;10.10;95.23
5755;BME280;2902;42.130;24.732;2024-03-07T13:02:09;99579.66;;;10.24;95.22
5755;BME280;2902;42.130;24.732;2024-03-07T13:04:36;99588.16;;;10.34;94.79
5755;BME280;2902;42.130;24.732;2024-03-07T13:07:03;99588.75;;;10.36;94.45
5755;BME280;2902;42.130;24.732;2024-03-07T13:09:30;99587.44;;;10.25;93.73
5755;BME280;2902;42.130;24.732;2024-03-07T13:11:57;99581.16;;;10.33;93.84
5755;BME280;2902;42.130;24.732;2024-03-07T13:14:25;99584.59;;;10.27;93.33
5755;BME280;2902;42.130;24.732;2024-03-07T13:16:56;99575.94;;;10.18;93.86
5755;BME280;2902;42.130;24.732;2024-03-07T13:19:25;99578.72;;;10.31;94.08
5755;BME280;2902;42.130;24.732;2024-03-07T13:21:52;99568.69;;;10.27;94.33
5755;BME280;2902;42.130;24.732;2024-03-07T13:24:20;99565.97;;;10.48;98.66
5755;BME280;2902;42.130;24.732;2024-03-07T13:26:46;99577.72;;;10.60;96.45